sensor_id;sensor_type;location;lat;lon;timestamp;P1;durP1;ratioP1;P2;durP2;ratioP2
61702;SDS011;47622;47.726;3.298;2022-09-19T00:03:38;2.75;;;1.60;;
61702;SDS011;47622;47.726;3.298;2022-09-19T00:06:06;5.15;;;1.65;;
61702;SDS011;47622;47.726;3.298;2022-09-19T00:08:35;4.28;;;1.50;;
61702;SDS011;47622;47.726;3.298;2022-09-19T00:11:05;3.65;;;1.60;;
61702;SDS011;47622;47.726;3.298;2022-09-19T00:13:32;2.65;;;1.60;;
61702;SDS011;47622;47.726;3.298;2022-09-19T00:15:59;2.20;;;1.90;;
61702;SDS011;47622;47.726;3.298;2022-09-19T00:18:25;1.83;;;1.50;;
61702;SDS011;47622;47.726;3.298;2022-09-19T00:20:51;2.17;;;1.48;;
61702;SDS011;47622;47.726;3.298;2022-09-19T00:23:17;2.97;;;1.60;;
61702;SDS011;47622;47.726;3.298;2022-09-19T00:26:02;2.83;;;1.60;;
61702;SDS011;47622;47.726;3.298;2022-09-19T00:28:29;4.15;;;1.83;;
61702;SDS011;47622;47.726;3.298;2022-09-19T00:30:56;1.60;;;1.50;;
61702;SDS011;47622;47.726;3.298;2022-09-19T00:33:22;1.67;;;1.58;;
61702;SDS011;47622;47.726;3.298;2022-09-19T00:35:53;2.33;;;1.50;;
61702;SDS011;47622;47.726;3.298;2022-09-19T00:38:20;2.88;;;1.50;;
61702;SDS011;47622;47.726;3.298;2022-09-19T00:40:47;4.53;;;2.00;;
61702;SDS011;47622;47.726;3.298;2022-09-19T00:43:13;2.70;;;1.60;;
61702;SDS011;47622;47.726;3.298;2022-09-19T00:45:40;2.00;;;1.63;;
61702;SDS011;47622;47.726;3.298;2022-09-19T00:48:06;4.05;;;1.83;;
61702;SDS011;47622;47.726;3.298;2022-09-19T00:50:33;4.65;;;1.60;;
61702;SDS011;47622;47.726;3.298;2022-09-19T00:53:03;2.58;;;1.70;;
61702;SDS011;47622;47.726;3.298;2022-09-19T00:55:34;2.35;;;1.73;;
61702;SDS011;47622;47.726;3.298;2022-09-19T01:00:27;1.83;;;1.73;;
61702;SDS011;47622;47.726;3.298;2022-09-19T01:02:53;2.35;;;1.40;;
61702;SDS011;47622;47.726;3.298;2022-09-19T01:05:22;3.38;;;1.60;;
61702;SDS011;47622;47.726;3.298;2022-09-19T01:08:04;3.25;;;1.85;;
61702;SDS011;47622;47.726;3.298;2022-09-19T01:10:51;1.95;;;1.55;;
61702;SDS011;47622;47.726;3.298;2022-09-19T01:13:33;3.28;;;1.63;;
61702;SDS011;47622;47.726;3.298;2022-09-19T01:16:10;2.30;;;1.60;;
61702;SDS011;47622;47.726;3.298;2022-09-19T01:18:52;2.10;;;1.58;;
61702;SDS011;47622;47.726;3.298;2022-09-19T01:21:29;3.10;;;1.65;;
61702;SDS011;47622;47.726;3.298;2022-09-19T01:30:03;2.50;;;1.58;;
61702;SDS011;47622;47.726;3.298;2022-09-19T01:32:33;2.55;;;1.52;;
61702;SDS011;47622;47.726;3.298;2022-09-19T01:35:03;2.15;;;1.73;;
61702;SDS011;47622;47.726;3.298;2022-09-19T01:37:34;2.00;;;1.80;;
61702;SDS011;47622;47.726;3.298;2022-09-19T01:40:04;1.63;;;1.52;;
61702;SDS011;47622;47.726;3.298;2022-09-19T01:42:32;2.50;;;1.88;;
61702;SDS011;47622;47.726;3.298;2022-09-19T01:44:57;6.85;;;2.00;;
61702;SDS011;47622;47.726;3.298;2022-09-19T01:53:08;2.75;;;1.80;;
61702;SDS011;47622;47.726;3.298;2022-09-19T01:56:02;4.93;;;1.73;;
61702;SDS011;47622;47.726;3.298;2022-09-19T02:04:27;5.97;;;2.00;;
61702;SDS011;47622;47.726;3.298;2022-09-19T02:10:14;2.67;;;1.90;;
61702;SDS011;47622;47.726;3.298;2022-09-19T02:12:44;2.40;;;1.65;;
61702;SDS011;47622;47.726;3.298;2022-09-19T02:15:15;3.40;;;1.80;;
61702;SDS011;47622;47.726;3.298;2022-09-19T02:17:45;2.50;;;1.52;;
61702;SDS011;47622;47.726;3.298;2022-09-19T02:20:18;2.45;;;1.60;;
61702;SDS011;47622;47.726;3.298;2022-09-19T02:22:54;2.28;;;1.52;;
61702;SDS011;47622;47.726;3.298;2022-09-19T02:25:25;2.20;;;2.00;;
61702;SDS011;47622;47.726;3.298;2022-09-19T02:27:58;2.97;;;1.75;;
61702;SDS011;47622;47.726;3.298;2022-09-19T02:30:28;5.53;;;1.90;;
61702;SDS011;47622;47.726;3.298;2022-09-19T02:32:54;3.13;;;1.92;;
61702;SDS011;47622;47.726;3.298;2022-09-19T02:35:28;2.95;;;2.05;;
61702;SDS011;47622;47.726;3.298;2022-09-19T02:49:28;1.85;;;1.63;;
61702;SDS011;47622;47.726;3.298;2022-09-19T02:52:01;3.05;;;1.85;;
61702;SDS011;47622;47.726;3.298;2022-09-19T02:54:33;2.60;;;1.45;;
61702;SDS011;47622;47.726;3.298;2022-09-19T02:57:03;2.05;;;1.80;;
61702;SDS011;47622;47.726;3.298;2022-09-19T02:59:33;2.13;;;1.80;;
61702;SDS011;47622;47.726;3.298;2022-09-19T03:02:02;2.13;;;1.70;;
61702;SDS011;47622;47.726;3.298;2022-09-19T03:04:38;3.33;;;2.03;;
61702;SDS011;47622;47.726;3.298;2022-09-19T03:09:52;3.65;;;1.90;;
61702;SDS011;47622;47.726;3.298;2022-09-19T03:12:33;5.55;;;1.90;;
61702;SDS011;47622;47.726;3.298;2022-09-19T03:15:05;5.60;;;1.90;;
61702;SDS011;47622;47.726;3.298;2022-09-19T03:17:35;4.05;;;1.90;;
61702;SDS011;47622;47.726;3.298;2022-09-19T03:20:04;2.85;;;1.90;;
61702;SDS011;47622;47.726;3.298;2022-09-19T03:22:32;2.38;;;1.80;;
61702;SDS011;47622;47.726;3.298;2022-09-19T03:24:59;3.25;;;1.92;;
61702;SDS011;47622;47.726;3.298;2022-09-19T03:27:27;2.33;;;1.77;;
61702;SDS011;47622;47.726;3.298;2022-09-19T03:29:52;2.58;;;1.77;;
61702;SDS011;47622;47.726;3.298;2022-09-19T03:32:18;2.03;;;1.80;;
61702;SDS011;47622;47.726;3.298;2022-09-19T03:34:51;6.18;;;1.90;;
61702;SDS011;47622;47.726;3.298;2022-09-19T03:37:20;3.58;;;1.77;;
61702;SDS011;47622;47.726;3.298;2022-09-19T03:39:47;2.88;;;1.77;;
61702;SDS011;47622;47.726;3.298;2022-09-19T03:42:12;1.63;;;1.52;;
61702;SDS011;47622;47.726;3.298;2022-09-19T03:44:39;3.65;;;1.55;;
61702;SDS011;47622;47.726;3.298;2022-09-19T03:47:05;2.30;;;1.58;;
61702;SDS011;47622;47.726;3.298;2022-09-19T03:49:31;2.47;;;1.80;;
61702;SDS011;47622;47.726;3.298;2022-09-19T03:51:56;5.90;;;2.03;;
61702;SDS011;47622;47.726;3.298;2022-09-19T03:54:25;3.67;;;2.00;;
61702;SDS011;47622;47.726;3.298;2022-09-19T03:56:50;1.90;;;1.63;;
61702;SDS011;47622;47.726;3.298;2022-09-19T03:59:18;1.65;;;1.55;;
61702;SDS011;47622;47.726;3.298;2022-09-19T04:01:43;4.32;;;1.70;;
61702;SDS011;47622;47.726;3.298;2022-09-19T04:04:09;2.00;;;1.70;;
61702;SDS011;47622;47.726;3.298;2022-09-19T04:06:36;5.03;;;1.70;;
61702;SDS011;47622;47.726;3.298;2022-09-19T04:09:02;3.40;;;1.80;;
61702;SDS011;47622;47.726;3.298;2022-09-19T04:11:28;1.80;;;1.70;;
61702;SDS011;47622;47.726;3.298;2022-09-19T04:13:54;1.90;;;1.75;;
61702;SDS011;47622;47.726;3.298;2022-09-19T04:16:20;2.17;;;1.75;;
61702;SDS011;47622;47.726;3.298;2022-09-19T04:18:46;1.75;;;1.65;;
61702;SDS011;47622;47.726;3.298;2022-09-19T04:21:16;6.15;;;2.00;;
61702;SDS011;47622;47.726;3.298;2022-09-19T04:23:42;11.05;;;2.25;;
61702;SDS011;47622;47.726;3.298;2022-09-19T04:26:08;2.65;;;1.60;;
61702;SDS011;47622;47.726;3.298;2022-09-19T04:28:38;2.33;;;1.70;;
61702;SDS011;47622;47.726;3.298;2022-09-19T04:31:07;4.20;;;1.67;;
61702;SDS011;47622;47.726;3.298;2022-09-19T04:33:34;2.05;;;1.65;;
61702;SDS011;47622;47.726;3.298;2022-09-19T04:36:01;2.42;;;1.70;;
61702;SDS011;47622;47.726;3.298;2022-09-19T04:38:28;1.92;;;1.83;;
61702;SDS011;47622;47.726;3.298;2022-09-19T04:40:55;1.65;;;1.55;;
61702;SDS011;47622;47.726;3.298;2022-09-19T04:43:22;2.10;;;1.50;;
61702;SDS011;47622;47.726;3.298;2022-09-19T04:45:49;1.88;;;1.67;;
61702;SDS011;47622;47.726;3.298;2022-09-19T04:48:18;1.60;;;1.50;;
61702;SDS011;47622;47.726;3.298;2022-09-19T04:50:45;2.47;;;1.80;;
61702;SDS011;47622;47.726;3.298;2022-09-19T04:53:24;2.33;;;1.80;;
61702;SDS011;47622;47.726;3.298;2022-09-19T04:55:53;2.13;;;1.70;;
61702;SDS011;47622;47.726;3.298;2022-09-19T04:58:20;2.08;;;1.60;;
61702;SDS011;47622;47.726;3.298;2022-09-19T05:00:50;2.55;;;1.75;;
61702;SDS011;47622;47.726;3.298;2022-09-19T05:03:18;2.70;;;1.73;;
61702;SDS011;47622;47.726;3.298;2022-09-19T05:05:45;2.63;;;1.70;;
61702;SDS011;47622;47.726;3.298;2022-09-19T05:08:16;2.78;;;2.00;;
61702;SDS011;47622;47.726;3.298;2022-09-19T05:10:50;2.38;;;1.67;;
61702;SDS011;47622;47.726;3.298;2022-09-19T05:13:16;2.95;;;2.65;;
61702;SDS011;47622;47.726;3.298;2022-09-19T05:15:43;3.05;;;2.13;;
61702;SDS011;47622;47.726;3.298;2022-09-19T05:18:10;3.40;;;1.77;;
61702;SDS011;47622;47.726;3.298;2022-09-19T05:20:36;2.05;;;1.80;;
61702;SDS011;47622;47.726;3.298;2022-09-19T05:23:03;2.45;;;1.83;;
61702;SDS011;47622;47.726;3.298;2022-09-19T05:25:30;2.60;;;2.20;;
61702;SDS011;47622;47.726;3.298;2022-09-19T05:28:00;5.53;;;2.00;;
61702;SDS011;47622;47.726;3.298;2022-09-19T05:30:35;2.35;;;2.08;;
61702;SDS011;47622;47.726;3.298;2022-09-19T05:33:10;5.10;;;2.13;;
61702;SDS011;47622;47.726;3.298;2022-09-19T05:35:36;2.97;;;2.00;;
61702;SDS011;47622;47.726;3.298;2022-09-19T05:38:03;1.98;;;1.77;;
61702;SDS011;47622;47.726;3.298;2022-09-19T05:40:29;2.28;;;1.88;;
61702;SDS011;47622;47.726;3.298;2022-09-19T05:42:55;2.42;;;1.90;;
61702;SDS011;47622;47.726;3.298;2022-09-19T05:45:25;3.60;;;1.90;;
61702;SDS011;47622;47.726;3.298;2022-09-19T05:47:51;3.28;;;2.13;;
61702;SDS011;47622;47.726;3.298;2022-09-19T05:50:16;4.18;;;2.00;;
61702;SDS011;47622;47.726;3.298;2022-09-19T05:52:42;3.03;;;2.53;;
61702;SDS011;47622;47.726;3.298;2022-09-19T05:55:27;3.35;;;2.05;;
61702;SDS011;47622;47.726;3.298;2022-09-19T05:57:54;3.58;;;1.80;;
61702;SDS011;47622;47.726;3.298;2022-09-19T06:00:22;2.83;;;2.13;;
61702;SDS011;47622;47.726;3.298;2022-09-19T06:02:56;2.85;;;2.20;;
61702;SDS011;47622;47.726;3.298;2022-09-19T06:05:25;3.60;;;2.20;;
61702;SDS011;47622;47.726;3.298;2022-09-19T06:07:52;2.30;;;2.10;;
61702;SDS011;47622;47.726;3.298;2022-09-19T06:10:21;7.43;;;2.38;;
61702;SDS011;47622;47.726;3.298;2022-09-19T06:12:48;3.53;;;2.30;;
61702;SDS011;47622;47.726;3.298;2022-09-19T06:15:14;4.10;;;2.10;;
61702;SDS011;47622;47.726;3.298;2022-09-19T06:17:40;3.25;;;2.33;;
61702;SDS011;47622;47.726;3.298;2022-09-19T06:20:07;2.75;;;2.20;;
61702;SDS011;47622;47.726;3.298;2022-09-19T06:22:33;2.33;;;1.85;;
61702;SDS011;47622;47.726;3.298;2022-09-19T06:24:59;2.38;;;1.90;;
61702;SDS011;47622;47.726;3.298;2022-09-19T06:27:26;2.40;;;2.20;;
61702;SDS011;47622;47.726;3.298;2022-09-19T06:29:53;2.45;;;2.25;;
61702;SDS011;47622;47.726;3.298;2022-09-19T06:32:19;2.55;;;2.10;;
61702;SDS011;47622;47.726;3.298;2022-09-19T06:34:45;3.38;;;2.20;;
61702;SDS011;47622;47.726;3.298;2022-09-19T06:37:12;3.00;;;2.10;;
61702;SDS011;47622;47.726;3.298;2022-09-19T06:39:38;3.00;;;2.10;;
61702;SDS011;47622;47.726;3.298;2022-09-19T06:42:04;3.25;;;2.20;;
61702;SDS011;47622;47.726;3.298;2022-09-19T06:44:29;4.43;;;2.22;;
61702;SDS011;47622;47.726;3.298;2022-09-19T06:46:55;4.22;;;2.35;;
61702;SDS011;47622;47.726;3.298;2022-09-19T06:49:23;2.67;;;1.88;;
61702;SDS011;47622;47.726;3.298;2022-09-19T06:51:49;2.78;;;2.28;;
61702;SDS011;47622;47.726;3.298;2022-09-19T06:54:15;2.42;;;1.95;;
61702;SDS011;47622;47.726;3.298;2022-09-19T06:56:41;3.85;;;2.00;;
61702;SDS011;47622;47.726;3.298;2022-09-19T06:59:07;3.53;;;2.60;;
61702;SDS011;47622;47.726;3.298;2022-09-19T07:01:33;2.90;;;2.33;;
61702;SDS011;47622;47.726;3.298;2022-09-19T07:03:59;2.30;;;2.10;;
61702;SDS011;47622;47.726;3.298;2022-09-19T07:06:24;4.75;;;2.20;;
61702;SDS011;47622;47.726;3.298;2022-09-19T07:08:50;5.97;;;2.10;;
61702;SDS011;47622;47.726;3.298;2022-09-19T07:11:16;4.65;;;2.33;;
61702;SDS011;47622;47.726;3.298;2022-09-19T07:13:41;3.83;;;2.30;;
61702;SDS011;47622;47.726;3.298;2022-09-19T07:16:09;5.70;;;2.40;;
61702;SDS011;47622;47.726;3.298;2022-09-19T07:18:36;4.43;;;2.38;;
61702;SDS011;47622;47.726;3.298;2022-09-19T07:21:03;4.05;;;2.30;;
61702;SDS011;47622;47.726;3.298;2022-09-19T07:23:29;10.07;;;3.43;;
61702;SDS011;47622;47.726;3.298;2022-09-19T07:25:56;4.90;;;2.20;;
61702;SDS011;47622;47.726;3.298;2022-09-19T07:28:23;3.53;;;2.40;;
61702;SDS011;47622;47.726;3.298;2022-09-19T07:30:49;3.95;;;2.03;;
61702;SDS011;47622;47.726;3.298;2022-09-19T07:33:17;2.25;;;1.75;;
61702;SDS011;47622;47.726;3.298;2022-09-19T07:35:45;4.97;;;2.10;;
61702;SDS011;47622;47.726;3.298;2022-09-19T07:38:12;3.15;;;1.88;;
61702;SDS011;47622;47.726;3.298;2022-09-19T07:40:39;2.90;;;2.03;;
61702;SDS011;47622;47.726;3.298;2022-09-19T07:43:06;7.20;;;2.17;;
61702;SDS011;47622;47.726;3.298;2022-09-19T07:45:33;3.63;;;1.88;;
61702;SDS011;47622;47.726;3.298;2022-09-19T07:48:01;4.95;;;2.15;;
61702;SDS011;47622;47.726;3.298;2022-09-19T07:50:28;4.97;;;2.08;;
61702;SDS011;47622;47.726;3.298;2022-09-19T07:52:58;4.63;;;1.85;;
61702;SDS011;47622;47.726;3.298;2022-09-19T07:55:25;2.97;;;1.65;;
61702;SDS011;47622;47.726;3.298;2022-09-19T07:57:55;3.38;;;1.40;;
61702;SDS011;47622;47.726;3.298;2022-09-19T08:00:22;1.83;;;1.10;;
61702;SDS011;47622;47.726;3.298;2022-09-19T08:02:56;3.03;;;1.20;;
61702;SDS011;47622;47.726;3.298;2022-09-19T08:05:23;2.70;;;1.27;;
61702;SDS011;47622;47.726;3.298;2022-09-19T08:07:51;4.53;;;1.45;;
61702;SDS011;47622;47.726;3.298;2022-09-19T08:10:17;1.48;;;1.20;;
61702;SDS011;47622;47.726;3.298;2022-09-19T08:12:43;1.65;;;1.20;;
61702;SDS011;47622;47.726;3.298;2022-09-19T08:15:10;1.63;;;1.00;;
61702;SDS011;47622;47.726;3.298;2022-09-19T08:18:02;2.42;;;1.38;;
61702;SDS011;47622;47.726;3.298;2022-09-19T08:20:32;5.32;;;1.30;;
61702;SDS011;47622;47.726;3.298;2022-09-19T08:23:31;5.00;;;1.40;;
61702;SDS011;47622;47.726;3.298;2022-09-19T08:25:51;1.73;;;1.20;;
61702;SDS011;47622;47.726;3.298;2022-09-19T08:28:19;3.28;;;1.20;;
61702;SDS011;47622;47.726;3.298;2022-09-19T08:30:45;5.40;;;1.67;;
61702;SDS011;47622;47.726;3.298;2022-09-19T08:33:14;1.67;;;0.80;;
61702;SDS011;47622;47.726;3.298;2022-09-19T08:35:42;4.22;;;1.20;;
61702;SDS011;47622;47.726;3.298;2022-09-19T08:38:08;3.63;;;1.30;;
61702;SDS011;47622;47.726;3.298;2022-09-19T08:48:22;2.47;;;1.00;;
61702;SDS011;47622;47.726;3.298;2022-09-19T08:51:24;3.55;;;1.02;;
61702;SDS011;47622;47.726;3.298;2022-09-19T08:54:44;2.33;;;0.80;;
61702;SDS011;47622;47.726;3.298;2022-09-19T08:56:55;2.30;;;1.00;;
61702;SDS011;47622;47.726;3.298;2022-09-19T08:59:22;4.28;;;1.02;;
61702;SDS011;47622;47.726;3.298;2022-09-19T09:01:55;4.45;;;1.08;;
61702;SDS011;47622;47.726;3.298;2022-09-19T09:04:27;2.85;;;1.05;;
61702;SDS011;47622;47.726;3.298;2022-09-19T09:09:44;2.70;;;1.00;;
61702;SDS011;47622;47.726;3.298;2022-09-19T09:18:02;2.53;;;0.88;;
61702;SDS011;47622;47.726;3.298;2022-09-19T09:20:57;3.08;;;1.05;;
61702;SDS011;47622;47.726;3.298;2022-09-19T09:23:37;2.35;;;1.13;;
61702;SDS011;47622;47.726;3.298;2022-09-19T09:26:19;2.33;;;1.25;;
61702;SDS011;47622;47.726;3.298;2022-09-19T09:31:38;3.53;;;0.93;;
61702;SDS011;47622;47.726;3.298;2022-09-19T09:34:14;2.47;;;0.77;;
61702;SDS011;47622;47.726;3.298;2022-09-19T09:37:43;3.95;;;0.70;;
61702;SDS011;47622;47.726;3.298;2022-09-19T09:40:00;2.10;;;0.90;;
61702;SDS011;47622;47.726;3.298;2022-09-19T09:42:57;6.07;;;0.80;;
61702;SDS011;47622;47.726;3.298;2022-09-19T09:45:44;3.20;;;1.05;;
61702;SDS011;47622;47.726;3.298;2022-09-19T09:51:16;1.50;;;0.65;;
61702;SDS011;47622;47.726;3.298;2022-09-19T09:54:20;3.28;;;1.02;;
61702;SDS011;47622;47.726;3.298;2022-09-19T09:59:48;4.07;;;1.10;;
61702;SDS011;47622;47.726;3.298;2022-09-19T10:02:51;4.88;;;1.00;;
61702;SDS011;47622;47.726;3.298;2022-09-19T10:05:59;2.50;;;0.52;;
61702;SDS011;47622;47.726;3.298;2022-09-19T10:11:38;1.75;;;0.82;;
61702;SDS011;47622;47.726;3.298;2022-09-19T10:14:17;1.58;;;0.70;;
61702;SDS011;47622;47.726;3.298;2022-09-19T10:16:46;5.70;;;1.15;;
61702;SDS011;47622;47.726;3.298;2022-09-19T10:22:09;5.13;;;0.88;;
61702;SDS011;47622;47.726;3.298;2022-09-19T10:24:47;3.38;;;0.80;;
61702;SDS011;47622;47.726;3.298;2022-09-19T10:27:16;2.58;;;0.90;;
61702;SDS011;47622;47.726;3.298;2022-09-19T10:32:44;5.80;;;0.90;;
61702;SDS011;47622;47.726;3.298;2022-09-19T10:37:58;3.10;;;0.80;;
61702;SDS011;47622;47.726;3.298;2022-09-19T10:40:24;2.88;;;0.90;;
61702;SDS011;47622;47.726;3.298;2022-09-19T10:42:51;4.07;;;1.05;;
61702;SDS011;47622;47.726;3.298;2022-09-19T10:50:34;3.75;;;0.88;;
61702;SDS011;47622;47.726;3.298;2022-09-19T10:53:13;1.92;;;0.70;;
61702;SDS011;47622;47.726;3.298;2022-09-19T10:55:47;2.38;;;0.70;;
61702;SDS011;47622;47.726;3.298;2022-09-19T10:58:19;3.05;;;0.90;;
61702;SDS011;47622;47.726;3.298;2022-09-19T11:03:30;1.45;;;0.70;;
61702;SDS011;47622;47.726;3.298;2022-09-19T11:08:35;2.45;;;0.63;;
61702;SDS011;47622;47.726;3.298;2022-09-19T11:16:33;4.50;;;0.70;;
61702;SDS011;47622;47.726;3.298;2022-09-19T11:25:36;1.13;;;0.68;;
61702;SDS011;47622;47.726;3.298;2022-09-19T11:27:49;3.03;;;1.20;;
61702;SDS011;47622;47.726;3.298;2022-09-19T11:30:23;6.10;;;0.90;;
61702;SDS011;47622;47.726;3.298;2022-09-19T11:38:27;4.47;;;1.05;;
61702;SDS011;47622;47.726;3.298;2022-09-19T12:00:28;3.13;;;0.98;;
61702;SDS011;47622;47.726;3.298;2022-09-19T12:11:04;2.97;;;0.95;;
61702;SDS011;47622;47.726;3.298;2022-09-19T12:16:04;3.65;;;0.90;;
61702;SDS011;47622;47.726;3.298;2022-09-19T12:18:45;1.92;;;0.50;;
61702;SDS011;47622;47.726;3.298;2022-09-19T12:21:15;4.15;;;0.80;;
61702;SDS011;47622;47.726;3.298;2022-09-19T12:23:45;5.38;;;0.80;;
61702;SDS011;47622;47.726;3.298;2022-09-19T12:26:42;2.47;;;0.63;;
61702;SDS011;47622;47.726;3.298;2022-09-19T12:29:14;4.35;;;0.88;;
61702;SDS011;47622;47.726;3.298;2022-09-19T12:31:47;3.70;;;0.80;;
61702;SDS011;47622;47.726;3.298;2022-09-19T12:34:23;4.13;;;0.90;;
61702;SDS011;47622;47.726;3.298;2022-09-19T12:39:47;2.22;;;0.90;;
61702;SDS011;47622;47.726;3.298;2022-09-19T12:42:26;3.30;;;0.70;;
61702;SDS011;47622;47.726;3.298;2022-09-19T12:48:23;2.75;;;0.85;;
61702;SDS011;47622;47.726;3.298;2022-09-19T12:51:01;2.42;;;0.85;;
61702;SDS011;47622;47.726;3.298;2022-09-19T12:56:11;2.15;;;0.80;;
61702;SDS011;47622;47.726;3.298;2022-09-19T13:03:56;3.03;;;0.80;;
61702;SDS011;47622;47.726;3.298;2022-09-19T13:06:47;3.78;;;0.93;;
61702;SDS011;47622;47.726;3.298;2022-09-19T13:09:17;4.45;;;1.00;;
61702;SDS011;47622;47.726;3.298;2022-09-19T13:11:49;5.93;;;1.13;;
61702;SDS011;47622;47.726;3.298;2022-09-19T13:14:26;10.07;;;1.63;;
61702;SDS011;47622;47.726;3.298;2022-09-19T13:17:13;5.60;;;0.90;;
61702;SDS011;47622;47.726;3.298;2022-09-19T13:19:58;2.72;;;0.80;;
61702;SDS011;47622;47.726;3.298;2022-09-19T13:22:48;5.88;;;1.00;;
61702;SDS011;47622;47.726;3.298;2022-09-19T13:33:21;2.33;;;1.02;;
61702;SDS011;47622;47.726;3.298;2022-09-19T13:35:52;4.53;;;1.00;;
61702;SDS011;47622;47.726;3.298;2022-09-19T13:38:20;3.80;;;1.00;;
61702;SDS011;47622;47.726;3.298;2022-09-19T13:40:59;3.78;;;1.25;;
61702;SDS011;47622;47.726;3.298;2022-09-19T13:43:33;3.47;;;1.00;;
61702;SDS011;47622;47.726;3.298;2022-09-19T13:46:30;4.32;;;1.15;;
61702;SDS011;47622;47.726;3.298;2022-09-19T13:52:23;7.55;;;1.00;;
61702;SDS011;47622;47.726;3.298;2022-09-19T13:57:43;3.83;;;0.70;;
61702;SDS011;47622;47.726;3.298;2022-09-19T14:03:04;2.65;;;0.90;;
61702;SDS011;47622;47.726;3.298;2022-09-19T14:05:34;3.00;;;0.60;;
61702;SDS011;47622;47.726;3.298;2022-09-19T14:08:05;4.72;;;1.15;;
61702;SDS011;47622;47.726;3.298;2022-09-19T14:21:08;4.20;;;1.02;;
61702;SDS011;47622;47.726;3.298;2022-09-19T14:31:47;4.78;;;1.00;;
61702;SDS011;47622;47.726;3.298;2022-09-19T14:34:43;2.33;;;0.70;;
61702;SDS011;47622;47.726;3.298;2022-09-19T14:45:50;6.00;;;1.00;;
61702;SDS011;47622;47.726;3.298;2022-09-19T14:51:19;1.27;;;0.68;;
61702;SDS011;47622;47.726;3.298;2022-09-19T14:53:52;4.30;;;0.93;;
61702;SDS011;47622;47.726;3.298;2022-09-19T14:56:26;4.38;;;0.80;;
61702;SDS011;47622;47.726;3.298;2022-09-19T14:58:52;2.80;;;0.80;;
61702;SDS011;47622;47.726;3.298;2022-09-19T15:01:28;3.47;;;1.20;;
61702;SDS011;47622;47.726;3.298;2022-09-19T15:06:32;3.20;;;0.98;;
61702;SDS011;47622;47.726;3.298;2022-09-19T15:08:59;5.05;;;0.70;;
61702;SDS011;47622;47.726;3.298;2022-09-19T15:11:26;7.03;;;1.58;;
61702;SDS011;47622;47.726;3.298;2022-09-19T15:13:51;3.72;;;1.05;;
61702;SDS011;47622;47.726;3.298;2022-09-19T15:16:25;4.32;;;0.82;;
61702;SDS011;47622;47.726;3.298;2022-09-19T15:18:51;2.90;;;0.80;;
61702;SDS011;47622;47.726;3.298;2022-09-19T15:21:30;4.67;;;0.87;;
61702;SDS011;47622;47.726;3.298;2022-09-19T15:23:59;2.10;;;0.70;;
61702;SDS011;47622;47.726;3.298;2022-09-19T15:26:29;2.03;;;0.68;;
61702;SDS011;47622;47.726;3.298;2022-09-19T15:29:03;5.03;;;0.70;;
61702;SDS011;47622;47.726;3.298;2022-09-19T15:31:40;5.50;;;1.05;;
61702;SDS011;47622;47.726;3.298;2022-09-19T15:34:17;4.97;;;0.80;;
61702;SDS011;47622;47.726;3.298;2022-09-19T15:36:45;3.35;;;0.98;;
61702;SDS011;47622;47.726;3.298;2022-09-19T15:39:11;2.83;;;0.90;;
61702;SDS011;47622;47.726;3.298;2022-09-19T15:41:40;4.22;;;1.63;;
61702;SDS011;47622;47.726;3.298;2022-09-19T15:44:12;4.45;;;1.02;;
61702;SDS011;47622;47.726;3.298;2022-09-19T15:51:53;3.55;;;0.65;;
61702;SDS011;47622;47.726;3.298;2022-09-19T15:54:25;5.00;;;0.90;;
61702;SDS011;47622;47.726;3.298;2022-09-19T15:56:58;2.35;;;0.70;;
61702;SDS011;47622;47.726;3.298;2022-09-19T15:59:35;4.50;;;1.13;;
61702;SDS011;47622;47.726;3.298;2022-09-19T16:02:03;3.72;;;1.15;;
61702;SDS011;47622;47.726;3.298;2022-09-19T16:04:32;11.00;;;1.08;;
61702;SDS011;47622;47.726;3.298;2022-09-19T16:06:58;2.03;;;0.80;;
61702;SDS011;47622;47.726;3.298;2022-09-19T16:09:43;4.68;;;0.73;;
61702;SDS011;47622;47.726;3.298;2022-09-19T16:14:45;4.88;;;1.42;;
61702;SDS011;47622;47.726;3.298;2022-09-19T16:17:12;4.15;;;1.20;;
61702;SDS011;47622;47.726;3.298;2022-09-19T16:19:44;3.65;;;1.00;;
61702;SDS011;47622;47.726;3.298;2022-09-19T16:22:11;2.42;;;0.80;;
61702;SDS011;47622;47.726;3.298;2022-09-19T16:24:49;4.18;;;0.90;;
61702;SDS011;47622;47.726;3.298;2022-09-19T16:27:22;3.67;;;0.85;;
61702;SDS011;47622;47.726;3.298;2022-09-19T16:29:50;3.00;;;0.88;;
61702;SDS011;47622;47.726;3.298;2022-09-19T16:32:17;2.35;;;0.82;;
61702;SDS011;47622;47.726;3.298;2022-09-19T16:34:52;3.25;;;0.88;;
61702;SDS011;47622;47.726;3.298;2022-09-19T16:37:39;4.78;;;0.70;;
61702;SDS011;47622;47.726;3.298;2022-09-19T16:40:13;5.82;;;1.00;;
61702;SDS011;47622;47.726;3.298;2022-09-19T16:42:44;3.47;;;1.00;;
61702;SDS011;47622;47.726;3.298;2022-09-19T16:47:42;6.38;;;1.08;;
61702;SDS011;47622;47.726;3.298;2022-09-19T16:52:35;5.63;;;1.00;;
61702;SDS011;47622;47.726;3.298;2022-09-19T16:55:19;4.78;;;1.10;;
61702;SDS011;47622;47.726;3.298;2022-09-19T16:57:51;6.53;;;0.90;;
61702;SDS011;47622;47.726;3.298;2022-09-19T17:00:21;3.88;;;1.00;;
61702;SDS011;47622;47.726;3.298;2022-09-19T17:02:47;4.47;;;0.93;;
61702;SDS011;47622;47.726;3.298;2022-09-19T17:05:20;2.22;;;0.70;;
61702;SDS011;47622;47.726;3.298;2022-09-19T17:07:50;2.38;;;0.90;;
61702;SDS011;47622;47.726;3.298;2022-09-19T17:10:16;2.88;;;0.80;;
61702;SDS011;47622;47.726;3.298;2022-09-19T17:12:44;2.90;;;0.90;;
61702;SDS011;47622;47.726;3.298;2022-09-19T17:15:22;2.72;;;0.88;;
61702;SDS011;47622;47.726;3.298;2022-09-19T17:17:58;2.60;;;1.00;;
61702;SDS011;47622;47.726;3.298;2022-09-19T17:20:23;5.75;;;1.00;;
61702;SDS011;47622;47.726;3.298;2022-09-19T17:22:49;3.47;;;1.10;;
61702;SDS011;47622;47.726;3.298;2022-09-19T17:27:55;4.82;;;1.33;;
61702;SDS011;47622;47.726;3.298;2022-09-19T17:30:21;3.28;;;0.88;;
61702;SDS011;47622;47.726;3.298;2022-09-19T17:32:47;2.55;;;1.20;;
61702;SDS011;47622;47.726;3.298;2022-09-19T17:35:14;3.78;;;1.08;;
61702;SDS011;47622;47.726;3.298;2022-09-19T17:37:40;2.85;;;0.80;;
61702;SDS011;47622;47.726;3.298;2022-09-19T17:40:06;5.78;;;0.95;;
61702;SDS011;47622;47.726;3.298;2022-09-19T17:42:32;3.95;;;1.17;;
61702;SDS011;47622;47.726;3.298;2022-09-19T17:44:58;2.85;;;0.90;;
61702;SDS011;47622;47.726;3.298;2022-09-19T17:47:23;3.33;;;1.10;;
61702;SDS011;47622;47.726;3.298;2022-09-19T17:49:49;3.67;;;1.00;;
61702;SDS011;47622;47.726;3.298;2022-09-19T17:52:15;4.65;;;1.00;;
61702;SDS011;47622;47.726;3.298;2022-09-19T17:54:41;4.53;;;0.90;;
61702;SDS011;47622;47.726;3.298;2022-09-19T17:57:07;3.80;;;1.10;;
61702;SDS011;47622;47.726;3.298;2022-09-19T17:59:33;1.88;;;0.90;;
61702;SDS011;47622;47.726;3.298;2022-09-19T18:01:58;5.13;;;1.00;;
61702;SDS011;47622;47.726;3.298;2022-09-19T18:04:42;2.55;;;0.80;;
61702;SDS011;47622;47.726;3.298;2022-09-19T18:07:08;2.90;;;0.93;;
61702;SDS011;47622;47.726;3.298;2022-09-19T18:16:51;3.75;;;1.20;;
61702;SDS011;47622;47.726;3.298;2022-09-19T18:19:20;3.97;;;0.85;;
61702;SDS011;47622;47.726;3.298;2022-09-19T18:21:46;2.95;;;1.17;;
61702;SDS011;47622;47.726;3.298;2022-09-19T18:26:39;1.88;;;1.00;;
61702;SDS011;47622;47.726;3.298;2022-09-19T18:29:05;2.78;;;1.30;;
61702;SDS011;47622;47.726;3.298;2022-09-19T18:31:33;6.60;;;1.75;;
61702;SDS011;47622;47.726;3.298;2022-09-19T18:36:25;4.78;;;1.63;;
61702;SDS011;47622;47.726;3.298;2022-09-19T18:38:52;7.07;;;2.00;;
61702;SDS011;47622;47.726;3.298;2022-09-19T18:41:24;3.90;;;1.60;;
61702;SDS011;47622;47.726;3.298;2022-09-19T18:43:54;2.88;;;1.70;;
61702;SDS011;47622;47.726;3.298;2022-09-19T18:46:21;4.05;;;1.65;;
61702;SDS011;47622;47.726;3.298;2022-09-19T18:48:49;4.75;;;1.95;;
61702;SDS011;47622;47.726;3.298;2022-09-19T18:51:17;2.15;;;1.48;;
61702;SDS011;47622;47.726;3.298;2022-09-19T18:53:44;5.18;;;1.50;;
61702;SDS011;47622;47.726;3.298;2022-09-19T18:58:38;2.53;;;1.10;;